Espinoza, Colorado
Current Conditions -  °F | °C
As of 9:52 AM on Friday 28 Nov 2014 (Local Time) from KALS Reporting Station
Clear Clear  
Wind Chill: 35°   Ceiling: Unl
Heat Index: 35°   Visibility: 10mi
Dew Point: 16°   Wind: 3mph
Humidity: 46%   Direction: NA
Pressure: 30.26"   Gusts: NA
Location:  37.1816°N, 106.262°W
Report Text: KALS 281652Z AUTO VRB03KT 10SM CLR 02/M09 A3026 RMK AO2 SLP269 T00171089
Loading
Personal Weather Stations






























Interactive Weather Map New forecast layout! Learn more

10-Day Weather Forecast

Advertisements
Track Severe Weather on mobile